createdAt,value
2016-06-07T00:00:35.178Z,84.59
2016-06-07T00:01:35.744Z,84.5
2016-06-07T00:02:35.403Z,84.5
2016-06-07T00:03:35.422Z,84.41
2016-06-07T00:04:34.985Z,84.69
2016-06-07T00:05:35.536Z,84.59
2016-06-07T00:06:36.116Z,84.5
2016-06-07T00:07:35.447Z,84.5
2016-06-07T00:08:34.887Z,84.59
2016-06-07T00:09:34.968Z,84.69
2016-06-07T00:10:34.846Z,84.79
2016-06-07T00:11:34.833Z,84.41
2016-06-07T00:12:34.821Z,84.31
2016-06-07T00:13:35.104Z,84.31
2016-06-07T00:14:34.762Z,84.59
2016-06-07T00:15:35.187Z,84.59
2016-06-07T00:16:34.737Z,84.11
2016-06-07T00:17:34.709Z,84.41
2016-06-07T00:18:34.742Z,84.11
2016-06-07T00:19:34.683Z,84.41
2016-06-07T00:20:35.357Z,84.11
2016-06-07T00:21:35.845Z,84.41
2016-06-07T00:22:34.613Z,84.41
2016-06-07T00:23:34.615Z,84.41
2016-06-07T00:24:34.586Z,84.69
2016-06-07T00:25:34.558Z,84.69
2016-06-07T00:26:34.983Z,84.69
2016-06-07T00:27:34.750Z,84.5
2016-06-07T00:28:34.848Z,84.5
2016-06-07T00:29:34.492Z,84.41
2016-06-07T00:30:34.744Z,84.5
2016-06-07T00:31:34.683Z,85.56
2016-06-07T00:32:34.452Z,84.69
2016-06-07T00:33:34.408Z,84.98
2016-06-07T00:34:34.411Z,85.56
2016-06-07T00:35:34.757Z,84.59
2016-06-07T00:36:35.010Z,84.79
2016-06-07T00:37:34.371Z,85.17
2016-06-07T00:38:34.344Z,85.08
2016-06-07T00:39:34.315Z,85.37
2016-06-07T00:40:34.332Z,85.17
2016-06-07T00:41:34.273Z,85.08
2016-06-07T00:42:34.260Z,85.08
2016-06-07T00:43:34.248Z,85.17
2016-06-07T00:44:34.250Z,85.17
2016-06-07T00:45:34.284Z,85.27
2016-06-07T00:46:34.209Z,85.13
2016-06-07T00:47:34.165Z,85.23
2016-06-07T00:48:34.182Z,84.84
2016-06-07T00:49:34.123Z,85.33
2016-06-07T00:50:33.984Z,85.37
2016-06-07T00:51:34.081Z,85.23
2016-06-07T00:52:34.084Z,85.23
2016-06-07T00:53:34.056Z,85.03
2016-06-07T00:54:34.261Z,85.03
2016-06-07T00:55:34.030Z,84.94
2016-06-07T00:56:34.001Z,84.94
2016-06-07T00:57:33.989Z,84.94
2016-06-07T00:58:33.959Z,84.84
2016-06-07T00:59:33.962Z,84.94
2016-06-07T01:00:33.934Z,85.13
2016-06-07T01:01:33.921Z,84.94
2016-06-07T01:02:33.892Z,84.94
2016-06-07T01:03:33.864Z,85.13
2016-06-07T01:04:33.866Z,85.13
2016-06-07T01:05:33.838Z,85.13
2016-06-07T01:06:34.402Z,85.13
2016-06-07T01:07:33.858Z,85.13
2016-06-07T01:08:33.768Z,84.94
2016-06-07T01:09:33.771Z,84.94
2016-06-07T01:10:33.727Z,84.94
2016-06-07T01:11:33.823Z,84.94
2016-06-07T01:12:33.700Z,85.13
2016-06-07T01:13:33.687Z,84.94
2016-06-07T01:14:33.831Z,84.94
2016-06-07T01:15:33.646Z,85.13
2016-06-07T01:16:33.836Z,85.13
2016-06-07T01:17:33.635Z,84.94
2016-06-07T01:18:33.592Z,84.94
2016-06-07T01:19:33.578Z,85.13
2016-06-07T01:20:33.972Z,84.94
2016-06-07T01:21:34.100Z,85.13
2016-06-07T01:22:33.524Z,85.13
2016-06-07T01:23:33.511Z,84.94
2016-06-07T01:24:33.498Z,84.94
2016-06-07T01:25:33.485Z,85.03
2016-06-07T01:26:33.442Z,84.94
2016-06-07T01:27:33.491Z,84.94
2016-06-07T01:28:33.400Z,84.94
2016-06-07T01:29:33.386Z,84.94
2016-06-07T01:30:33.374Z,84.94
2016-06-07T01:31:33.377Z,84.94
2016-06-07T01:32:33.348Z,85.09
2016-06-07T01:33:33.335Z,85.13
2016-06-07T01:34:33.369Z,85.13
2016-06-07T01:35:33.308Z,85.19
2016-06-07T01:36:33.328Z,84.99
2016-06-07T01:37:33.252Z,84.75
2016-06-07T01:38:33.224Z,85.09
2016-06-07T01:39:33.210Z,84.9
2016-06-07T01:40:33.072Z,84.9
2016-06-07T01:41:33.216Z,84.9
2016-06-07T01:42:33.157Z,84.8
2016-06-07T01:43:33.127Z,84.7
2016-06-07T01:44:33.114Z,84.8
2016-06-07T01:45:33.085Z,84.9
2016-06-07T01:46:33.088Z,84.9
2016-06-07T01:47:33.059Z,84.8
2016-06-07T01:48:33.035Z,84.9
2016-06-07T01:49:33.037Z,84.7
2016-06-07T01:50:33.039Z,84.9
2016-06-07T01:51:33.229Z,84.9
2016-06-07T01:52:33.042Z,84.7
2016-06-07T01:53:33.012Z,84.7
2016-06-07T01:54:33.020Z,84.7
2016-06-07T01:55:33.090Z,84.8
2016-06-07T01:56:32.974Z,84.9
2016-06-07T01:57:32.965Z,84.7
2016-06-07T01:58:33.114Z,84.9
2016-06-07T01:59:33.134Z,84.99
2016-06-07T02:00:32.935Z,84.8
2016-06-07T02:01:32.924Z,85.09
2016-06-07T02:02:32.882Z,84.8
2016-06-07T02:03:32.870Z,84.7
2016-06-07T02:04:32.828Z,84.8
2016-06-07T02:05:32.832Z,84.8
2016-06-07T02:06:33.413Z,84.8
2016-06-07T02:07:32.838Z,84.8
2016-06-07T02:08:32.842Z,84.7
2016-06-07T02:09:32.766Z,84.8
2016-06-07T02:10:32.769Z,84.99
2016-06-07T02:11:32.725Z,84.7
2016-06-07T02:12:32.682Z,84.99
2016-06-07T02:13:32.685Z,84.99
2016-06-07T02:14:32.516Z,84.7
2016-06-07T02:15:32.643Z,84.7
2016-06-07T02:16:32.630Z,84.8
2016-06-07T02:17:32.601Z,84.7
2016-06-07T02:18:32.574Z,85.09
2016-06-07T02:19:32.560Z,85.19
2016-06-07T02:20:32.547Z,85.09
2016-06-07T02:21:32.534Z,85.09
2016-06-07T02:22:32.521Z,85.09
2016-06-07T02:23:32.493Z,85.09
2016-06-07T02:24:32.324Z,85.09
2016-06-07T02:25:32.451Z,85.09
2016-06-07T02:26:32.423Z,85.09
2016-06-07T02:27:32.426Z,85.19
2016-06-07T02:28:32.397Z,85.09
2016-06-07T02:29:32.368Z,84.9
2016-06-07T02:30:32.355Z,85.09
2016-06-07T02:31:32.342Z,84.9
2016-06-07T02:32:32.329Z,84.9
2016-06-07T02:33:32.364Z,85.09
2016-06-07T02:34:32.304Z,85.09
2016-06-07T02:35:32.275Z,85.09
2016-06-07T02:36:32.262Z,84.9
2016-06-07T02:37:32.967Z,84.9
2016-06-07T02:38:33.361Z,84.8
2016-06-07T02:39:32.255Z,85.38
2016-06-07T02:40:32.164Z,84.8
2016-06-07T02:41:32.135Z,85.09
2016-06-07T02:42:32.231Z,85.09
2016-06-07T02:43:32.422Z,84.9
2016-06-07T02:44:32.143Z,85.05
2016-06-07T02:45:32.083Z,85.09
2016-06-07T02:46:32.055Z,85.09
2016-06-07T02:47:32.041Z,84.86
2016-06-07T02:48:32.029Z,84.66
2016-06-07T02:49:32.343Z,85.05
2016-06-07T02:50:31.988Z,85.05
2016-06-07T02:51:32.413Z,85.05
2016-06-07T02:52:31.961Z,85.14
2016-06-07T02:53:32.730Z,84.86
2016-06-07T02:54:31.904Z,85.05
2016-06-07T02:55:31.907Z,85.05
2016-06-07T02:56:31.926Z,84.86
2016-06-07T02:57:31.850Z,84.86
2016-06-07T02:58:31.868Z,84.86
2016-06-07T02:59:31.902Z,85.05
2016-06-07T03:00:31.796Z,85.05
2016-06-07T03:01:31.798Z,85.05
2016-06-07T03:02:31.785Z,85.05
2016-06-07T03:03:31.787Z,85.05
2016-06-07T03:04:31.806Z,85.05
2016-06-07T03:05:31.700Z,84.86
2016-06-07T03:06:31.749Z,85.05
2016-06-07T03:07:31.673Z,84.95
2016-06-07T03:08:31.708Z,85.05
2016-06-07T03:09:31.617Z,85.05
2016-06-07T03:10:31.603Z,85.05
2016-06-07T03:11:31.591Z,85.14
2016-06-07T03:12:31.561Z,85.05
2016-06-07T03:13:31.611Z,85.05
2016-06-07T03:14:31.521Z,84.76
2016-06-07T03:15:31.507Z,85.05
2016-06-07T03:16:31.494Z,84.66
2016-06-07T03:17:31.482Z,84.76
2016-06-07T03:18:31.453Z,84.95
2016-06-07T03:19:31.503Z,84.76
2016-06-07T03:20:31.427Z,84.86
2016-06-07T03:21:31.430Z,84.95
2016-06-07T03:22:31.793Z,84.66
2016-06-07T03:23:31.404Z,85.05
2016-06-07T03:24:31.329Z,85.05
2016-06-07T03:25:31.332Z,85.05
2016-06-07T03:26:31.288Z,85.05
2016-06-07T03:27:31.274Z,84.86
2016-06-07T03:28:31.277Z,84.86
2016-06-07T03:29:31.264Z,85.05
2016-06-07T03:30:31.220Z,85.05
2016-06-07T03:31:31.207Z,85.14
2016-06-07T03:32:31.195Z,85.14
2016-06-07T03:33:31.150Z,85.05
2016-06-07T03:34:31.137Z,85.05
2016-06-07T03:35:31.139Z,85.05
2016-06-07T03:36:31.126Z,85.05
2016-06-07T03:37:30.926Z,85.05
2016-06-07T03:38:31.069Z,85.05
2016-06-07T03:39:31.041Z,84.86
2016-06-07T03:40:31.028Z,85.34
2016-06-07T03:41:31.062Z,85.34
2016-06-07T03:42:31.002Z,85.14
2016-06-07T03:43:30.974Z,85.24
2016-06-07T03:44:30.977Z,84.76
2016-06-07T03:45:30.947Z,85.14
2016-06-07T03:46:30.919Z,85.43
2016-06-07T03:47:30.891Z,85.05
2016-06-07T03:48:30.877Z,84.76
2016-06-07T03:49:30.880Z,84.95
2016-06-07T03:50:30.821Z,85.05
2016-06-07T03:51:30.917Z,85.14
2016-06-07T03:52:30.841Z,85.05
2016-06-07T03:53:30.891Z,85.24
2016-06-07T03:54:30.769Z,84.86
2016-06-07T03:55:30.740Z,84.56
2016-06-07T03:56:30.805Z,84.66
2016-06-07T03:57:30.745Z,84.56
2016-06-07T03:58:30.935Z,84.47
2016-06-07T03:59:30.751Z,84.86
2016-06-07T04:00:30.645Z,84.56
2016-06-07T04:01:30.632Z,84.28
2016-06-07T04:02:31.071Z,84.47
2016-06-07T04:03:30.606Z,84.28
2016-06-07T04:04:30.561Z,84.18
2016-06-07T04:05:30.564Z,84.28
2016-06-07T04:06:31.598Z,84.18
2016-06-07T04:07:31.242Z,84.47
2016-06-07T04:08:30.916Z,84.28
2016-06-07T04:09:30.465Z,84.47
2016-06-07T04:10:30.547Z,84.28
2016-06-07T04:11:31.392Z,83.99
2016-06-07T04:12:31.130Z,83.99
2016-06-07T04:13:30.445Z,84.28
2016-06-07T04:14:30.229Z,84.28
2016-06-07T04:15:30.356Z,84.56
2016-06-07T04:16:30.343Z,84.47
2016-06-07T04:17:30.347Z,84.28
2016-06-07T04:18:30.303Z,84.28
2016-06-07T04:19:30.321Z,84.28
2016-06-07T04:20:30.260Z,84.28
2016-06-07T04:21:30.560Z,84.28
2016-06-07T04:22:30.344Z,84.47
2016-06-07T04:23:30.207Z,84.56
2016-06-07T04:24:30.225Z,84.66
2016-06-07T04:25:30.196Z,85.05
2016-06-07T04:26:30.589Z,84.95
2016-06-07T04:27:30.139Z,84.86
2016-06-07T04:28:30.110Z,85.05
2016-06-07T04:29:30.129Z,85.05
2016-06-07T04:30:30.053Z,84.95
2016-06-07T04:31:30.057Z,84.95
2016-06-07T04:32:30.027Z,84.95
2016-06-07T04:33:30.045Z,84.86
2016-06-07T04:34:30.158Z,85.24
2016-06-07T04:35:29.988Z,84.56
2016-06-07T04:36:29.960Z,84.86
2016-06-07T04:37:30.244Z,84.66
2016-06-07T04:38:29.918Z,84.61
2016-06-07T04:39:29.889Z,84.56
2016-06-07T04:40:29.893Z,84.56
2016-06-07T04:41:29.848Z,84.38
2016-06-07T04:42:29.695Z,84.28
2016-06-07T04:43:29.806Z,84.47
2016-06-07T04:44:29.810Z,84.32
2016-06-07T04:45:29.811Z,84.32
2016-06-07T04:46:29.768Z,84.12
2016-06-07T04:47:29.755Z,84.52
2016-06-07T04:48:29.727Z,84.03
2016-06-07T04:49:29.698Z,84.52
2016-06-07T04:50:29.716Z,84.12
2016-06-07T04:51:29.672Z,84.42
2016-06-07T04:52:30.315Z,84.61
2016-06-07T04:53:29.630Z,84.52
2016-06-07T04:54:29.633Z,84.32
2016-06-07T04:55:29.605Z,84.12
2016-06-07T04:56:29.607Z,84.32
2016-06-07T04:57:29.563Z,84.22
2016-06-07T04:58:29.535Z,84.42
2016-06-07T04:59:29.554Z,84.52
2016-06-07T05:00:29.509Z,84.8
2016-06-07T05:01:29.480Z,84.9
2016-06-07T05:02:29.467Z,84.8
2016-06-07T05:03:29.439Z,84.61
2016-06-07T05:04:29.442Z,84.52
2016-06-07T05:05:29.398Z,84.7
2016-06-07T05:06:29.385Z,84.52
2016-06-07T05:07:29.371Z,84.52
2016-06-07T05:08:29.343Z,84.52
2016-06-07T05:09:29.314Z,84.7
2016-06-07T05:10:29.317Z,84.42
2016-06-07T05:11:30.086Z,84.12
2016-06-07T05:12:29.275Z,84.12
2016-06-07T05:13:29.262Z,84.03
2016-06-07T05:14:29.234Z,83.94
2016-06-07T05:15:29.222Z,83.98
2016-06-07T05:16:29.208Z,84.52
2016-06-07T05:17:29.522Z,84.12
2016-06-07T05:18:29.183Z,84.27
2016-06-07T05:19:29.138Z,84.07
2016-06-07T05:20:29.141Z,83.98
2016-06-07T05:21:29.127Z,83.88
2016-06-07T05:22:29.491Z,84.27
2016-06-07T05:23:29.133Z,84.17
2016-06-07T05:24:29.058Z,84.07
2016-06-07T05:25:29.013Z,84.46
2016-06-07T05:26:29.001Z,83.98
2016-06-07T05:27:28.972Z,83.78
2016-06-07T05:28:28.975Z,83.78
2016-06-07T05:29:28.946Z,83.59
2016-06-07T05:30:28.776Z,83.5
2016-06-07T05:31:28.748Z,83.4
2016-06-07T05:32:28.923Z,83.69
2016-06-07T05:33:28.910Z,83.5
2016-06-07T05:34:28.851Z,83.92
2016-06-07T05:35:28.838Z,83.83
2016-06-07T05:36:29.028Z,84.17
2016-06-07T05:37:28.811Z,84.11
2016-06-07T05:38:28.877Z,83.73
2016-06-07T05:39:28.786Z,83.69
2016-06-07T05:40:28.789Z,83.34
2016-06-07T05:41:28.728Z,83.53
2016-06-07T05:42:28.731Z,83.83
2016-06-07T05:43:28.734Z,83.92
2016-06-07T05:44:28.675Z,83.83
2016-06-07T05:45:28.973Z,83.44
2016-06-07T05:46:28.648Z,83.44
2016-06-07T05:47:28.619Z,83.25
2016-06-07T05:48:28.591Z,83.44
2016-06-07T05:49:28.688Z,83.15
2016-06-07T05:50:28.549Z,82.86
2016-06-07T05:51:28.599Z,83.15
2016-06-07T05:52:28.696Z,83.34
2016-06-07T05:53:28.527Z,82.96
2016-06-07T05:54:28.514Z,83.05
2016-06-07T05:55:28.532Z,83.05
2016-06-07T05:56:28.785Z,83.09
2016-06-07T05:57:28.428Z,83.19
2016-06-07T05:58:28.416Z,83.29
2016-06-07T05:59:28.386Z,83.19
2016-06-07T06:00:28.451Z,83.09
2016-06-07T06:01:28.361Z,83.09
2016-06-07T06:02:28.394Z,83.48
2016-06-07T06:03:28.335Z,83.29
2016-06-07T06:04:28.306Z,83
2016-06-07T06:05:28.277Z,83
2016-06-07T06:06:28.390Z,83.19
2016-06-07T06:07:28.862Z,83
2016-06-07T06:08:29.067Z,83.29
2016-06-07T06:09:28.226Z,83.09
2016-06-07T06:10:28.182Z,82.61
2016-06-07T06:11:28.340Z,82.61
2016-06-07T06:12:28.218Z,82.71
2016-06-07T06:13:28.143Z,82.81
2016-06-07T06:14:28.176Z,82.81
2016-06-07T06:15:28.117Z,82.81
2016-06-07T06:16:28.072Z,82.61
2016-06-07T06:17:28.060Z,82.61
2016-06-07T06:18:28.031Z,82.46
2016-06-07T06:19:28.034Z,82.36
2016-06-07T06:20:28.005Z,82.65
2016-06-07T06:21:28.008Z,82.56
2016-06-07T06:22:28.605Z,82.65
2016-06-07T06:23:28.998Z,82.65
2016-06-07T06:24:28.391Z,82.56
2016-06-07T06:25:27.738Z,82.56
2016-06-07T06:26:27.756Z,82.56
2016-06-07T06:27:27.899Z,82.56
2016-06-07T06:28:27.886Z,82.46
2016-06-07T06:29:27.951Z,82.56
2016-06-07T06:30:27.939Z,82.46
2016-06-07T06:31:27.910Z,82.46
2016-06-07T06:32:27.803Z,82.17
2016-06-07T06:33:27.775Z,82.36
2016-06-07T06:34:27.762Z,82.46
2016-06-07T06:35:27.764Z,82.36
2016-06-07T06:36:27.720Z,81.98
2016-06-07T06:37:27.785Z,81.88
2016-06-07T06:38:27.773Z,81.68
2016-06-07T06:39:27.712Z,82.26
2016-06-07T06:40:27.653Z,81.88
2016-06-07T06:41:27.702Z,81.78
2016-06-07T06:42:27.674Z,81.78
2016-06-07T06:43:33.818Z,81.82
2016-06-07T06:44:31.195Z,81.78
2016-06-07T06:45:27.603Z,81.78
2016-06-07T06:46:27.545Z,82.11
2016-06-07T06:47:27.547Z,81.92
2016-06-07T06:48:27.783Z,81.92
2016-06-07T06:49:27.475Z,81.92
2016-06-07T06:50:27.477Z,82.21
2016-06-07T06:51:27.495Z,81.92
2016-06-07T06:52:27.513Z,82.11
2016-06-07T06:53:27.423Z,82.02
2016-06-07T06:54:27.238Z,82.11
2016-06-07T06:55:27.365Z,81.82
2016-06-07T06:56:27.369Z,81.92
2016-06-07T06:57:27.324Z,81.73
2016-06-07T06:58:27.483Z,82.02
2016-06-07T06:59:27.297Z,82.02
2016-06-07T07:00:27.299Z,81.82
2016-06-07T07:01:27.272Z,81.44
2016-06-07T07:02:27.244Z,81.29
2016-06-07T07:03:27.230Z,81.38
2016-06-07T07:04:27.218Z,81.67
2016-06-07T07:05:27.221Z,81.48
2016-06-07T07:06:27.160Z,81.29
2016-06-07T07:07:28.304Z,81.57
2016-06-07T07:08:27.212Z,81.38
2016-06-07T07:09:27.168Z,81.38
2016-06-07T07:10:27.249Z,81.29
2016-06-07T07:11:27.126Z,81.09
2016-06-07T07:12:27.114Z,81.09
2016-06-07T07:13:27.289Z,81.09
2016-06-07T07:14:27.213Z,81.19
2016-06-07T07:15:27.215Z,81.29
2016-06-07T07:16:27.000Z,81.57
2016-06-07T07:17:27.003Z,81.38
2016-06-07T07:18:26.958Z,81.48
2016-06-07T07:19:26.945Z,81.67
2016-06-07T07:20:26.947Z,81.04
2016-06-07T07:21:27.014Z,81.09
2016-06-07T07:22:28.063Z,81.13
2016-06-07T07:23:26.971Z,80.84
2016-06-07T07:24:26.897Z,80.71
2016-06-07T07:25:26.680Z,80.84
2016-06-07T07:26:26.824Z,80.65
2016-06-07T07:28:26.782Z,80.74
2016-06-07T07:29:26.753Z,80.94
2016-06-07T07:30:26.756Z,80.74
2016-06-07T07:31:26.727Z,81.04
2016-06-07T07:32:26.715Z,80.94
2016-06-07T07:33:26.686Z,80.94
2016-06-07T07:34:26.705Z,80.46
2016-06-07T07:35:26.691Z,80.74
2016-06-07T07:36:26.710Z,80.65
2016-06-07T07:37:34.307Z,80.46
2016-06-07T07:38:26.590Z,80.26
2016-06-07T07:39:26.576Z,80.36
2016-06-07T07:40:26.564Z,80.07
2016-06-07T07:41:26.802Z,80.16
2016-06-07T07:42:26.538Z,80.36
2016-06-07T07:43:26.510Z,80.65
2016-06-07T07:44:26.512Z,79.97
2016-06-07T07:45:26.500Z,80.36
2016-06-07T07:46:26.470Z,79.78
2016-06-07T07:47:26.459Z,79.82
2016-06-07T07:48:26.429Z,79.72
2016-06-07T07:49:26.416Z,79.91
2016-06-07T07:50:25.606Z,79.43
2016-06-07T07:51:26.422Z,79.43
2016-06-07T07:52:26.409Z,79.62
2016-06-07T07:53:26.677Z,79.43
2016-06-07T07:54:26.320Z,79.33
2016-06-07T07:55:26.308Z,79.52
2016-06-07T07:56:26.294Z,78.94
2016-06-07T07:57:26.282Z,78.94
2016-06-07T07:58:27.222Z,78.94
2016-06-07T07:59:26.241Z,78.94
2016-06-07T08:00:26.211Z,79.33
2016-06-07T08:01:29.261Z,79.24
2016-06-07T08:02:26.186Z,78.75
2016-06-07T08:03:26.173Z,79.24
2016-06-07T08:04:26.144Z,78.89
2016-06-07T08:05:26.146Z,78.66
2016-06-07T08:06:26.165Z,79.17
2016-06-07T08:07:26.778Z,79.17
2016-06-07T08:08:26.499Z,78.94
2016-06-07T08:09:26.080Z,78.79
2016-06-07T08:10:26.067Z,79.08
2016-06-07T08:11:26.195Z,78.41
2016-06-07T08:12:26.010Z,78.79
2016-06-07T08:13:26.606Z,78.69
2016-06-07T08:14:26.046Z,78.69
2016-06-07T08:15:25.955Z,78.59
2016-06-07T08:16:25.973Z,78.59
2016-06-07T08:17:25.929Z,78.59
2016-06-07T08:18:26.026Z,78.5
2016-06-07T08:19:25.904Z,78.31
2016-06-07T08:20:25.890Z,78.11
2016-06-07T08:21:25.939Z,78.11
2016-06-07T08:22:25.849Z,77.73
2016-06-07T08:23:25.884Z,77.82
2016-06-07T08:24:25.839Z,78.02
2016-06-07T08:25:25.622Z,77.92
2016-06-07T08:26:25.797Z,77.73
2016-06-07T08:27:25.988Z,78.02
2016-06-07T08:28:25.849Z,77.92
2016-06-07T08:29:25.728Z,78.11
2016-06-07T08:30:25.761Z,78.41
2016-06-07T08:31:25.733Z,77.92
2016-06-07T08:32:25.688Z,77.47
2016-06-07T08:33:25.691Z,77.28
2016-06-07T08:34:25.943Z,77.34
2016-06-07T08:35:25.634Z,77.76
2016-06-07T08:36:26.091Z,77.67
2016-06-07T08:37:25.999Z,77.57
2016-06-07T08:38:26.282Z,77.57
2016-06-07T08:39:25.551Z,77.67
2016-06-07T08:40:25.928Z,77.67
2016-06-07T08:41:25.572Z,77.67
2016-06-07T08:42:25.543Z,77.37
2016-06-07T08:43:25.593Z,77.47
2016-06-07T08:44:25.501Z,77.57
2016-06-07T08:45:25.442Z,77.57
2016-06-07T08:46:25.554Z,77.57
2016-06-07T08:47:25.495Z,77.67
2016-06-07T08:48:25.419Z,77.86
2016-06-07T08:49:25.531Z,77.96
2016-06-07T08:50:25.377Z,77.57
2016-06-07T08:51:25.365Z,77.37
2016-06-07T08:52:25.398Z,77.37
2016-06-07T08:53:26.167Z,77.47
2016-06-07T08:54:25.325Z,77.57
2016-06-07T08:55:25.297Z,77.47
2016-06-07T08:56:25.612Z,77.28
2016-06-07T08:57:25.381Z,76.79
2016-06-07T08:58:25.242Z,76.99
2016-06-07T08:59:25.605Z,76.83
2016-06-07T09:00:25.248Z,77.09
2016-06-07T09:01:25.219Z,76.83
2016-06-07T09:02:25.222Z,77.12
2016-06-07T09:03:25.194Z,77.12
2016-06-07T09:04:25.212Z,76.54
2016-06-07T09:05:25.371Z,76.54
2016-06-07T09:06:25.155Z,76.64
2016-06-07T09:07:25.282Z,76.45
2016-06-07T09:08:25.535Z,76.64
2016-06-07T09:09:25.038Z,76.15
2016-06-07T09:10:25.056Z,76.25
2016-06-07T09:11:25.013Z,76.25
2016-06-07T09:12:25.015Z,76.45
2016-06-07T09:13:25.096Z,76.45
2016-06-07T09:14:24.973Z,76.64
2016-06-07T09:15:24.960Z,76.06
2016-06-07T09:16:24.979Z,75.87
2016-06-07T09:17:26.043Z,75.87
2016-06-07T09:18:25.187Z,75.77
2016-06-07T09:19:24.971Z,76.25
2016-06-07T09:20:25.192Z,75.87
2016-06-07T09:21:27.884Z,76.25
2016-06-07T09:22:24.901Z,76.15
2016-06-07T09:23:24.872Z,75.77
2016-06-07T09:24:24.891Z,75.87
2016-06-07T09:25:24.831Z,75.42
2016-06-07T09:26:24.803Z,75.51
2016-06-07T09:27:25.181Z,75.13
2016-06-07T09:28:24.761Z,75.23
2016-06-07T09:29:38.622Z,75.81
2016-06-07T09:30:24.875Z,75.51
2016-06-07T09:31:24.692Z,75.51
2016-06-07T09:32:24.803Z,75.51
2016-06-07T09:33:24.712Z,75.51
2016-06-07T09:34:24.950Z,75.03
2016-06-07T09:35:27.827Z,75.51
2016-06-07T09:36:25.141Z,75.13
2016-06-07T09:37:25.207Z,75.07
2016-06-07T09:38:24.944Z,74.97
2016-06-07T09:39:24.790Z,75.36
2016-06-07T09:40:24.574Z,75.07
2016-06-07T09:41:24.562Z,75.36
2016-06-07T09:42:24.518Z,74.87
2016-06-07T09:43:24.770Z,74.58
2016-06-07T09:44:24.491Z,74.39
2016-06-07T09:45:26.072Z,74.19
2016-06-07T09:46:24.951Z,74.49
2016-06-07T09:47:24.484Z,74.81
2016-06-07T09:48:24.424Z,74.23
2016-06-07T09:49:24.740Z,74.33
2016-06-07T09:50:24.398Z,74.52
2016-06-07T09:51:24.370Z,74.33
2016-06-07T09:52:24.513Z,73.94
2016-06-07T09:53:25.125Z,74.04
2016-06-07T09:54:24.347Z,73.46
2016-06-07T09:55:24.350Z,73.55
2016-06-07T09:56:24.570Z,73.55
2016-06-07T09:57:24.105Z,73.2
2016-06-07T09:58:24.686Z,73.1
2016-06-07T09:59:24.281Z,73.2
2016-06-07T10:00:24.253Z,73.1
2016-06-07T10:01:25.537Z,73
2016-06-07T10:02:24.539Z,73.2
2016-06-07T10:03:24.167Z,72.91
2016-06-07T10:04:24.280Z,72.81
2016-06-07T10:05:24.205Z,72.81
2016-06-07T10:06:24.191Z,72.91
2016-06-07T10:07:24.225Z,72.81
2016-06-07T10:08:24.510Z,72.61
2016-06-07T10:09:24.106Z,72.52
2016-06-07T10:10:24.077Z,72.61
2016-06-07T10:11:24.095Z,72.91
2016-06-07T10:12:24.113Z,72.71
2016-06-07T10:13:24.007Z,72.81
2016-06-07T10:14:24.057Z,72.81
2016-06-07T10:15:24.013Z,72.61
2016-06-07T10:16:24.015Z,72.71
2016-06-07T10:17:23.971Z,72.42
2016-06-07T10:18:40.333Z,72.81
2016-06-07T10:19:23.927Z,72.81
2016-06-07T10:20:23.916Z,72.81
2016-06-07T10:21:24.074Z,72.42
2016-06-07T10:22:23.920Z,72.33
2016-06-07T10:23:23.877Z,72.71
2016-06-07T10:24:23.863Z,72.23
2016-06-07T10:25:23.928Z,72.13
2016-06-07T10:26:23.838Z,71.94
2016-06-07T10:27:23.793Z,72.13
2016-06-07T10:28:23.780Z,72.03
2016-06-07T10:29:23.860Z,72.03
2016-06-07T10:30:23.770Z,71.94
2016-06-07T10:31:24.178Z,71.74
2016-06-07T10:32:23.729Z,72.23
2016-06-07T10:33:23.950Z,71.45
2016-06-07T10:34:23.843Z,71.58
2016-06-07T10:35:23.690Z,71.06
2016-06-07T10:36:23.692Z,71.2
2016-06-07T10:37:24.117Z,71.2
2016-06-07T10:38:23.806Z,71.39
2016-06-07T10:39:24.217Z,71.39
2016-06-07T10:40:23.859Z,70.81
2016-06-07T10:41:24.237Z,70.61
2016-06-07T10:42:23.678Z,71.2
2016-06-07T10:43:24.195Z,70.81
2016-06-07T10:44:23.886Z,71.29
2016-06-07T10:45:23.514Z,70.42
2016-06-07T10:46:24.125Z,70.51
2016-06-07T10:47:24.113Z,70.61
2016-06-07T10:48:23.583Z,70.71
2016-06-07T10:49:23.728Z,71
2016-06-07T10:50:23.433Z,70.51
2016-06-07T10:51:27.467Z,69.84
2016-06-07T10:52:24.907Z,69.74
2016-06-07T10:53:23.925Z,69.64
2016-06-07T10:54:23.381Z,69.54
2016-06-07T10:55:23.381Z,70.06
2016-06-07T10:56:23.399Z,69.96
2016-06-07T10:57:23.963Z,69.77
2016-06-07T10:58:23.496Z,70.16
2016-06-07T10:59:23.389Z,70.16
2016-06-07T11:00:23.353Z,69.96
2016-06-07T11:01:23.360Z,69.96
2016-06-07T11:02:23.399Z,69.29
2016-06-07T11:03:23.814Z,69.58
2016-06-07T11:04:23.775Z,69.58
2016-06-07T11:05:23.327Z,69.67
2016-06-07T11:06:23.440Z,69.58
2016-06-07T11:07:23.492Z,68.9
2016-06-07T11:08:24.200Z,68.8
2016-06-07T11:09:23.252Z,68.8
2016-06-07T11:10:23.240Z,68.8
2016-06-07T11:11:23.211Z,69.09
2016-06-07T11:12:23.512Z,69.48
2016-06-07T11:13:23.204Z,69.48
2016-06-07T11:14:23.175Z,69.38
2016-06-07T11:15:23.210Z,68.99
2016-06-07T11:16:23.150Z,68.9
2016-06-07T11:17:23.153Z,68.6
2016-06-07T11:18:23.125Z,69.22
2016-06-07T11:19:23.128Z,69.09
2016-06-07T11:20:23.100Z,69.09
2016-06-07T11:21:23.822Z,69.32
2016-06-07T11:22:23.089Z,68.51
2016-06-07T11:23:23.717Z,68.44
2016-06-07T11:24:23.172Z,68.35
2016-06-07T11:25:23.019Z,68.15
2016-06-07T11:26:23.006Z,68.54
2016-06-07T11:27:22.993Z,68.35
2016-06-07T11:28:23.169Z,68.25
2016-06-07T11:29:22.968Z,68.25
2016-06-07T11:30:22.939Z,68.35
2016-06-07T11:31:22.941Z,67.86
2016-06-07T11:32:22.945Z,67.86
2016-06-07T11:33:22.932Z,67.67
2016-06-07T11:34:22.903Z,68.15
2016-06-07T11:35:22.859Z,67.67
2016-06-07T11:36:22.877Z,67.18
2016-06-07T11:37:22.879Z,67.31
2016-06-07T11:38:23.413Z,66.93
2016-06-07T11:39:22.666Z,67.21
2016-06-07T11:40:22.856Z,66.93
2016-06-07T11:41:23.296Z,67.11
2016-06-07T11:42:22.987Z,66.34
2016-06-07T11:43:22.959Z,66.44
2016-06-07T11:44:23.040Z,66.53
2016-06-07T11:45:22.776Z,66.24
2016-06-07T11:46:22.764Z,65.95
2016-06-07T11:47:23.156Z,66.14
2016-06-07T11:48:22.862Z,66.44
2016-06-07T11:49:22.756Z,66.34
2016-06-07T11:50:22.681Z,65.85
2016-06-07T11:51:23.012Z,66.24
2016-06-07T11:52:23.358Z,65.66
2016-06-07T11:53:23.158Z,65.98
2016-06-07T11:54:23.769Z,65.59
2016-06-07T11:55:26.116Z,64.72
2016-06-07T11:56:22.993Z,64.17
2016-06-07T11:57:22.747Z,62.25
2016-06-07T11:58:23.155Z,60.42
2016-06-07T11:59:22.720Z,58.66
2016-06-07T12:00:22.817Z,56.57
2016-06-07T12:01:22.788Z,57.79
2016-06-07T12:02:22.682Z,57.48
2016-06-07T12:03:22.637Z,58.94
2016-06-07T12:04:22.499Z,59.5
2016-06-07T12:05:22.736Z,60.45
2016-06-07T12:06:22.771Z,61
2016-06-07T12:07:22.571Z,61.76
2016-06-07T12:08:23.244Z,62.7
2016-06-07T12:09:22.669Z,62.21
2016-06-07T12:10:22.843Z,62.76
2016-06-07T12:11:22.924Z,62.76
2016-06-07T12:12:22.911Z,62.66
2016-06-07T12:13:22.898Z,62.18
2016-06-07T12:14:22.542Z,60.46
2016-06-07T12:15:22.748Z,56.25
2016-06-07T12:16:22.970Z,50.24
2016-06-07T12:17:26.143Z,44.91
2016-06-07T12:18:22.678Z,40.64
2016-06-07T12:19:22.853Z,38.59
2016-06-07T12:20:22.776Z,38.26
2016-06-07T12:21:22.764Z,41.22
2016-06-07T12:22:22.673Z,45.57
2016-06-07T12:23:23.364Z,48.39
2016-06-07T12:24:23.069Z,49.97
2016-06-07T12:25:22.900Z,51.12
2016-06-07T12:26:22.653Z,51.1
2016-06-07T12:27:22.717Z,53.02
2016-06-07T12:28:22.814Z,54.14
2016-06-07T12:29:22.582Z,53.63
2016-06-07T12:30:22.460Z,53.33
2016-06-07T12:31:22.525Z,53.75
2016-06-07T12:32:22.450Z,53.63
2016-06-07T12:33:22.311Z,54.87
2016-06-07T12:34:22.393Z,55.56
2016-06-07T12:35:22.145Z,55.04
2016-06-07T12:36:22.288Z,55.53
2016-06-07T12:37:22.229Z,55.21
2016-06-07T12:38:22.090Z,56.58
2016-06-07T12:39:22.874Z,57.43
2016-06-07T12:40:22.159Z,57.99
2016-06-07T12:41:22.271Z,58.72
2016-06-07T12:42:22.149Z,58.62
2016-06-07T12:43:22.510Z,59.28
2016-06-07T12:44:22.154Z,60.35
2016-06-07T12:45:22.234Z,59.74
2016-06-07T12:46:22.190Z,59.93
2016-06-07T12:47:22.068Z,59.7
2016-06-07T12:48:22.118Z,59.02
2016-06-07T12:49:22.090Z,59.05
2016-06-07T12:50:22.045Z,59.7
2016-06-07T12:51:22.048Z,60.1
2016-06-07T12:52:21.973Z,60.62
2016-06-07T12:53:24.897Z,61.79
2016-06-07T12:54:21.759Z,61.57
2016-06-07T12:55:21.730Z,61.47
2016-06-07T12:56:24.811Z,62.41